Time;durP1;ratioP1;P1;durP2;ratioP2;P2;SDS_P1;SDS_P2;PMS_P1;PMS_P2;Temp;Humidity;BMP_temperature;BMP_pressure;BME280_temperature;BME280_humidity;BME280_pressure;Samples;Min_cycle;Max_cycle;Signal;HPM_P1;HPM_P2
2021/09/21 00:00:50;;;;;;;9.68;8.10;;;11.50;99.90;;;;;;5011614;28;20923;-80
2021/09/21 00:03:16;;;;;;;9.67;8.63;;;11.50;99.90;;;;;;5011866;28;20379;-80
2021/09/21 00:05:42;;;;;;;8.55;7.75;;;11.50;99.90;;;;;;5011715;28;20390;-81
2021/09/21 00:08:07;;;;;;;9.97;8.43;;;11.50;99.90;;;;;;5011717;28;20745;-81
2021/09/21 00:10:33;;;;;;;8.82;7.97;;;11.50;99.90;;;;;;5011913;28;20463;-79
2021/09/21 00:12:59;;;;;;;10.43;8.65;;;11.50;99.90;;;;;;4994192;28;20418;-81
2021/09/21 00:15:25;;;;;;;9.30;8.23;;;11.50;99.90;;;;;;5011528;28;20433;-81
2021/09/21 00:17:52;;;;;;;9.45;8.35;;;11.50;99.90;;;;;;4993695;28;20749;-81
2021/09/21 00:20:18;;;;;;;12.40;9.27;;;11.50;99.90;;;;;;5011339;28;20393;-79
2021/09/21 00:22:44;;;;;;;9.05;7.93;;;11.40;99.90;;;;;;5010796;28;20378;-81
2021/09/21 00:25:12;;;;;;;10.15;8.20;;;11.50;99.90;;;;;;5011415;28;20380;-81
2021/09/21 00:27:38;;;;;;;9.98;8.30;;;11.50;99.90;;;;;;5011179;28;20907;-81
2021/09/21 00:30:05;;;;;;;11.00;8.05;;;11.50;99.90;;;;;;5012101;28;20379;-78
2021/09/21 00:32:31;;;;;;;8.60;7.78;;;11.50;99.90;;;;;;5010990;28;20391;-78
2021/09/21 00:34:57;;;;;;;8.98;8.07;;;11.50;99.90;;;;;;5010901;28;20889;-78
2021/09/21 00:37:23;;;;;;;9.50;8.40;;;11.50;99.90;;;;;;5011304;28;20398;-80
2021/09/21 00:39:48;;;;;;;10.10;8.52;;;11.50;99.90;;;;;;5010671;28;20943;-79
2021/09/21 00:42:22;;;;;;;10.90;8.37;;;11.50;99.90;;;;;;5010849;28;20453;-79
2021/09/21 00:44:56;;;;;;;9.63;8.63;;;11.40;99.90;;;;;;5010913;28;20379;-81
2021/09/21 00:47:22;;;;;;;10.43;8.77;;;11.40;99.90;;;;;;5011084;28;20389;-81
2021/09/21 00:49:48;;;;;;;9.53;8.43;;;11.40;99.90;;;;;;5010826;28;20478;-80
2021/09/21 00:52:14;;;;;;;12.15;8.80;;;11.40;99.90;;;;;;5010966;28;20375;-79
2021/09/21 00:54:39;;;;;;;13.05;9.13;;;11.30;99.90;;;;;;5010983;28;20391;-78
2021/09/21 00:57:05;;;;;;;10.48;9.27;;;11.30;99.90;;;;;;5010834;28;20475;-78
2021/09/21 00:59:31;;;;;;;10.60;8.90;;;11.30;99.90;;;;;;5011461;28;20407;-80
2021/09/21 01:01:56;;;;;;;10.23;8.85;;;11.40;99.90;;;;;;5010504;28;20388;-80
2021/09/21 01:04:22;;;;;;;9.90;8.90;;;11.40;99.90;;;;;;5010599;28;20937;-80
2021/09/21 01:06:48;;;;;;;10.47;8.37;;;11.40;99.90;;;;;;5010501;28;20789;-79
2021/09/21 01:09:18;;;;;;;12.18;9.23;;;11.40;99.90;;;;;;5009529;28;20410;-78
2021/09/21 01:11:50;;;;;;;9.80;8.80;;;11.40;99.90;;;;;;5011204;28;20383;-79
2021/09/21 01:14:16;;;;;;;11.20;8.88;;;11.40;99.90;;;;;;5009080;28;20792;-80
2021/09/21 01:16:42;;;;;;;11.32;9.50;;;11.40;99.90;;;;;;5010370;28;20367;-80
2021/09/21 01:19:10;;;;;;;14.43;9.50;;;11.40;99.90;;;;;;5010439;28;20406;-80
2021/09/21 01:21:36;;;;;;;10.27;9.02;;;11.30;99.90;;;;;;5010496;28;20902;-79
2021/09/21 01:24:02;;;;;;;12.10;9.60;;;11.30;99.90;;;;;;5010270;28;20410;-80
2021/09/21 01:26:27;;;;;;;10.50;9.00;;;11.30;99.90;;;;;;5010190;28;20383;-79
2021/09/21 01:28:53;;;;;;;12.30;9.57;;;11.30;99.90;;;;;;5010099;28;20383;-79
2021/09/21 01:31:19;;;;;;;11.30;9.60;;;11.30;99.90;;;;;;5008993;28;20399;-78
2021/09/21 01:33:46;;;;;;;10.38;9.38;;;11.30;99.90;;;;;;5009771;28;20542;-79
2021/09/21 01:36:14;;;;;;;12.33;9.60;;;11.40;99.90;;;;;;5009726;28;20375;-81
2021/09/21 01:38:40;;;;;;;12.27;9.60;;;11.40;99.90;;;;;;4992326;28;20403;-80
2021/09/21 01:41:05;;;;;;;10.97;8.70;;;11.40;99.90;;;;;;5010125;28;20785;-79
2021/09/21 01:43:31;;;;;;;9.88;8.50;;;11.40;99.90;;;;;;5010040;28;20386;-79
2021/09/21 01:45:57;;;;;;;10.50;9.38;;;11.40;99.90;;;;;;5009998;28;20473;-79
2021/09/21 01:48:23;;;;;;;11.73;9.27;;;11.50;99.90;;;;;;5009730;28;20379;-81
2021/09/21 01:50:55;;;;;;;10.98;9.48;;;11.40;99.90;;;;;;5009881;28;20411;-79
2021/09/21 02:01:25;;;;;;;9.55;8.55;;;11.50;99.90;;;;;;5009950;28;20432;-79
2021/09/21 02:03:58;;;;;;;10.33;8.87;;;11.50;99.90;;;;;;5009466;28;20765;-80
2021/09/21 02:06:34;;;;;;;10.32;9.15;;;11.50;99.90;;;;;;5009629;28;20869;-80
2021/09/21 02:09:00;;;;;;;10.15;8.38;;;11.50;99.90;;;;;;5009594;28;20387;-81
2021/09/21 02:11:26;;;;;;;10.80;8.90;;;11.50;99.90;;;;;;5009488;28;20386;-81
2021/09/21 02:13:56;;;;;;;10.17;8.77;;;11.50;99.90;;;;;;5009552;28;20371;-79
2021/09/21 02:16:26;;;;;;;9.80;8.80;;;11.50;99.90;;;;;;5009482;28;20865;-81
2021/09/21 02:18:52;;;;;;;9.45;8.50;;;11.50;99.90;;;;;;5009000;28;20419;-81
2021/09/21 02:21:17;;;;;;;9.83;8.70;;;11.40;99.90;;;;;;5009271;28;20381;-81
2021/09/21 02:23:44;;;;;;;10.57;8.80;;;11.50;99.90;;;;;;5009256;28;20449;-81
2021/09/21 02:26:10;;;;;;;10.13;8.48;;;11.50;99.90;;;;;;5009155;28;20390;-78
2021/09/21 02:28:35;;;;;;;9.97;8.70;;;11.50;99.90;;;;;;5009181;28;20383;-82
2021/09/21 02:31:01;;;;;;;11.00;8.55;;;11.50;99.90;;;;;;5008965;28;20379;-80
2021/09/21 02:33:28;;;;;;;10.10;8.80;;;11.50;99.90;;;;;;5008992;28;20812;-78
2021/09/21 02:35:53;;;;;;;10.77;8.90;;;11.40;99.90;;;;;;5009093;28;20983;-80
2021/09/21 02:38:19;;;;;;;9.93;8.90;;;11.40;99.90;;;;;;5008953;28;20411;-81
2021/09/21 02:40:45;;;;;;;9.93;7.90;;;11.40;99.90;;;;;;5007840;28;20387;-79
2021/09/21 02:43:10;;;;;;;9.48;8.50;;;11.40;99.90;;;;;;5009286;28;20459;-78
2021/09/21 02:45:36;;;;;;;9.33;8.33;;;11.50;99.90;;;;;;5008716;28;20394;-79
2021/09/21 02:48:01;;;;;;;9.23;7.72;;;11.50;99.90;;;;;;5008880;28;20873;-81
2021/09/21 02:50:27;;;;;;;9.90;8.37;;;11.50;99.90;;;;;;5008742;28;20384;-81
2021/09/21 02:52:53;;;;;;;11.30;9.10;;;11.40;99.90;;;;;;5007672;28;20764;-81
2021/09/21 02:55:19;;;;;;;10.57;9.20;;;11.40;99.90;;;;;;4991438;28;20879;-78
2021/09/21 02:57:44;;;;;;;10.05;9.05;;;11.40;99.90;;;;;;5009142;28;20386;-81
2021/09/21 03:00:13;;;;;;;12.10;9.07;;;11.40;99.90;;;;;;5008883;28;20901;-80
2021/09/21 03:02:39;;;;;;;8.82;7.93;;;11.40;99.90;;;;;;4990910;28;20460;-79
2021/09/21 03:05:11;;;;;;;9.52;8.50;;;11.40;99.90;;;;;;5008645;28;20395;-81
2021/09/21 03:07:40;;;;;;;10.52;8.70;;;11.40;99.90;;;;;;5007329;28;20406;-81
2021/09/21 03:18:25;;;;;;;9.50;8.50;;;11.40;99.90;;;;;;5008683;28;20862;-81
2021/09/21 03:20:51;;;;;;;13.60;9.32;;;11.40;99.90;;;;;;5008443;28;20383;-79
2021/09/21 03:23:17;;;;;;;11.00;9.02;;;11.40;99.90;;;;;;5008831;28;20375;-82
2021/09/21 03:25:42;;;;;;;10.48;9.30;;;11.50;99.90;;;;;;5008861;28;20497;-81
2021/09/21 03:28:08;;;;;;;11.82;8.88;;;11.40;99.90;;;;;;5008795;28;20403;-80
2021/09/21 03:30:34;;;;;;;11.97;8.73;;;11.50;99.90;;;;;;5007567;28;20387;-82
2021/09/21 03:32:59;;;;;;;9.30;8.30;;;11.50;99.90;;;;;;5007368;28;20947;-80
2021/09/21 03:35:25;;;;;;;10.90;8.93;;;11.60;99.90;;;;;;5008759;28;20383;-81
2021/09/21 03:37:51;;;;;;;11.80;9.80;;;11.60;99.90;;;;;;5008321;28;20865;-80
2021/09/21 03:40:16;;;;;;;13.95;9.13;;;11.60;99.90;;;;;;5008455;28;20420;-81
2021/09/21 03:42:42;;;;;;;11.70;8.65;;;11.60;99.90;;;;;;5008778;28;20398;-82
2021/09/21 03:45:08;;;;;;;9.43;8.50;;;11.60;99.90;;;;;;5008779;28;20406;-81
2021/09/21 03:47:34;;;;;;;9.88;8.43;;;11.70;99.90;;;;;;5008454;28;20386;-80
2021/09/21 03:50:00;;;;;;;11.00;8.63;;;11.60;99.90;;;;;;5008543;28;20375;-81
2021/09/21 03:52:25;;;;;;;12.10;8.60;;;11.60;99.90;;;;;;5008585;28;20383;-81
2021/09/21 03:54:51;;;;;;;14.93;8.70;;;11.70;99.90;;;;;;5008120;28;20382;-80
2021/09/21 03:57:16;;;;;;;10.38;8.45;;;11.60;99.90;;;;;;5008514;28;20474;-81
2021/09/21 03:59:42;;;;;;;9.50;8.60;;;11.60;99.90;;;;;;5012035;28;20458;-80
2021/09/21 04:02:07;;;;;;;10.02;8.20;;;11.60;99.90;;;;;;5011903;28;20395;-80
2021/09/21 04:04:33;;;;;;;9.87;8.33;;;11.60;99.90;;;;;;5011804;28;20444;-81
2021/09/21 04:06:59;;;;;;;10.23;8.83;;;11.60;99.90;;;;;;5011928;28;20422;-82
2021/09/21 04:09:25;;;;;;;10.10;9.00;;;11.50;99.90;;;;;;5012019;28;20383;-81
2021/09/21 04:11:50;;;;;;;14.18;9.50;;;11.50;99.90;;;;;;5011616;28;20379;-79
2021/09/21 04:14:16;;;;;;;13.73;9.67;;;11.50;99.90;;;;;;5011974;28;20387;-82
2021/09/21 04:16:41;;;;;;;12.35;9.55;;;11.40;99.90;;;;;;5011754;28;20391;-80
2021/09/21 04:19:07;;;;;;;10.37;9.27;;;11.40;99.90;;;;;;5010228;28;20498;-81
2021/09/21 04:21:33;;;;;;;14.13;10.27;;;11.40;99.90;;;;;;5011695;28;20898;-80
2021/09/21 04:23:58;;;;;;;13.10;9.68;;;11.40;99.90;;;;;;4993902;28;20745;-81
2021/09/21 04:26:24;;;;;;;14.63;10.17;;;11.40;99.90;;;;;;5010064;28;20394;-82
2021/09/21 04:28:49;;;;;;;12.50;10.20;;;11.40;99.90;;;;;;5011417;28;20400;-82
2021/09/21 04:31:22;;;;;;;11.10;9.82;;;11.40;99.90;;;;;;5011195;28;20784;-80
2021/09/21 04:33:48;;;;;;;11.63;10.43;;;11.30;99.90;;;;;;5011502;28;20850;-82
2021/09/21 04:36:14;;;;;;;13.40;10.10;;;11.40;99.90;;;;;;5011441;28;20379;-79
2021/09/21 04:38:40;;;;;;;11.83;9.90;;;11.40;99.90;;;;;;5011148;28;20411;-80
2021/09/21 04:41:06;;;;;;;12.95;10.73;;;11.40;99.90;;;;;;5011085;28;20445;-79
2021/09/21 04:43:33;;;;;;;13.17;10.80;;;11.40;99.90;;;;;;4993598;28;20383;-81
2021/09/21 04:45:59;;;;;;;12.50;11.00;;;11.40;99.90;;;;;;5011258;28;20386;-81
2021/09/21 04:48:24;;;;;;;13.05;11.65;;;11.50;99.90;;;;;;5011182;28;20383;-81
2021/09/21 04:50:51;;;;;;;15.07;11.40;;;11.50;99.90;;;;;;5011019;28;20869;-81
2021/09/21 04:53:17;;;;;;;12.38;10.38;;;11.50;99.90;;;;;;5011080;28;20393;-80
2021/09/21 04:55:42;;;;;;;12.10;10.60;;;11.50;99.90;;;;;;4993420;28;20386;-79
2021/09/21 04:58:08;;;;;;;11.47;10.27;;;11.50;99.90;;;;;;5010955;28;20891;-81
2021/09/21 05:00:34;;;;;;;12.95;10.55;;;11.40;99.90;;;;;;5011449;28;20506;-79
2021/09/21 05:03:00;;;;;;;14.98;11.40;;;11.50;99.90;;;;;;4993073;28;20453;-80
2021/09/21 05:05:25;;;;;;;15.45;11.25;;;11.50;99.90;;;;;;5011028;28;20375;-80
2021/09/21 05:07:51;;;;;;;13.87;11.47;;;11.50;99.90;;;;;;5010403;28;20379;-79
2021/09/21 05:10:17;;;;;;;12.32;10.75;;;11.50;99.90;;;;;;4993339;28;20379;-81
2021/09/21 05:12:43;;;;;;;12.68;11.00;;;11.60;99.90;;;;;;5010965;28;20398;-82
2021/09/21 05:15:10;;;;;;;13.88;11.15;;;11.50;99.90;;;;;;5010878;28;20387;-80
2021/09/21 05:17:37;;;;;;;15.82;11.60;;;11.50;99.90;;;;;;4992855;28;20381;-79
2021/09/21 05:20:03;;;;;;;13.93;11.40;;;11.50;99.90;;;;;;5010529;28;20919;-81
2021/09/21 05:22:29;;;;;;;13.70;11.15;;;11.50;99.90;;;;;;5010469;28;20379;-80
2021/09/21 05:24:55;;;;;;;14.80;11.63;;;11.50;99.90;;;;;;4993693;28;20396;-80
2021/09/21 05:27:20;;;;;;;14.70;11.10;;;11.50;99.90;;;;;;4995783;28;20563;-78
2021/09/21 05:29:46;;;;;;;12.10;10.65;;;11.50;99.90;;;;;;5004002;28;20889;-80
2021/09/21 05:32:12;;;;;;;13.13;11.27;;;11.60;99.90;;;;;;4997162;28;20483;-80
2021/09/21 05:34:37;;;;;;;15.13;10.77;;;11.60;99.90;;;;;;5000268;28;21609;-81
2021/09/21 05:37:03;;;;;;;12.50;10.95;;;11.70;99.90;;;;;;5004368;28;20390;-77
2021/09/21 05:39:28;;;;;;;13.37;11.60;;;11.70;99.90;;;;;;4997966;28;20409;-79
2021/09/21 05:41:54;;;;;;;12.80;10.70;;;11.70;99.90;;;;;;4999799;28;20391;-81
2021/09/21 05:44:20;;;;;;;13.55;11.05;;;11.80;99.90;;;;;;4999779;28;20874;-82
2021/09/21 05:46:46;;;;;;;16.13;11.83;;;11.80;99.90;;;;;;4997193;28;20389;-78
2021/09/21 05:49:12;;;;;;;11.70;10.50;;;11.90;99.90;;;;;;4981656;28;20451;-80
2021/09/21 05:51:37;;;;;;;13.00;10.73;;;12.00;99.90;;;;;;4997557;28;20390;-79
2021/09/21 05:54:03;;;;;;;12.23;10.82;;;12.10;99.90;;;;;;4998321;28;20375;-79
2021/09/21 05:56:29;;;;;;;11.00;9.88;;;12.10;99.90;;;;;;4997119;28;20891;-81
2021/09/21 05:58:56;;;;;;;13.97;11.30;;;12.10;99.90;;;;;;4997910;28;20460;-81
2021/09/21 06:01:21;;;;;;;13.70;11.07;;;12.10;99.90;;;;;;4999212;28;21000;-80
2021/09/21 06:03:47;;;;;;;15.00;11.32;;;12.10;99.90;;;;;;4997329;28;20389;-79
2021/09/21 06:06:13;;;;;;;12.60;11.13;;;12.20;99.90;;;;;;4980840;28;20735;-80
2021/09/21 06:08:38;;;;;;;12.43;11.13;;;12.20;99.90;;;;;;4999720;28;20460;-80
2021/09/21 06:11:05;;;;;;;12.93;11.50;;;12.10;99.90;;;;;;4998029;28;20475;-80
2021/09/21 06:13:30;;;;;;;11.80;10.40;;;12.20;99.90;;;;;;4998840;28;20375;-80
2021/09/21 06:15:56;;;;;;;13.48;11.20;;;12.30;99.90;;;;;;5005775;28;20482;-80
2021/09/21 06:18:21;;;;;;;12.95;10.98;;;12.40;99.90;;;;;;4981084;28;20414;-79
2021/09/21 06:20:47;;;;;;;13.13;10.47;;;12.50;99.90;;;;;;4998154;28;20389;-79
2021/09/21 06:23:13;;;;;;;12.90;10.52;;;12.50;99.90;;;;;;4999258;28;20378;-79
2021/09/21 06:25:39;;;;;;;10.80;9.70;;;12.70;99.90;;;;;;4999595;28;20468;-78
2021/09/21 06:28:05;;;;;;;12.52;10.68;;;12.70;99.90;;;;;;4999479;28;21634;-79
2021/09/21 06:30:32;;;;;;;11.20;10.10;;;12.70;99.90;;;;;;4998884;28;20382;-78
2021/09/21 06:32:58;;;;;;;11.77;9.98;;;12.80;99.90;;;;;;4996147;28;20381;-80
2021/09/21 06:35:24;;;;;;;9.80;8.80;;;12.80;99.90;;;;;;4996315;28;20395;-80
2021/09/21 06:37:50;;;;;;;11.43;10.13;;;12.90;99.90;;;;;;4994457;28;20391;-80
2021/09/21 06:40:16;;;;;;;11.50;9.63;;;13.00;99.90;;;;;;4994533;28;20415;-79
2021/09/21 06:42:42;;;;;;;9.95;8.95;;;13.10;99.90;;;;;;4995809;28;20384;-79
2021/09/21 06:45:11;;;;;;;10.68;9.25;;;13.30;99.90;;;;;;4994727;28;20389;-80
2021/09/21 06:47:37;;;;;;;10.55;9.43;;;13.40;99.90;;;;;;4995494;28;20426;-80
2021/09/21 06:50:03;;;;;;;9.13;8.13;;;13.50;99.90;;;;;;5002835;28;20379;-79
2021/09/21 06:52:30;;;;;;;12.15;9.00;;;13.70;99.90;;;;;;5002686;28;20444;-79
2021/09/21 06:54:56;;;;;;;11.27;9.27;;;13.80;99.90;;;;;;4979730;28;20387;-80
2021/09/21 06:57:22;;;;;;;11.77;9.33;;;14.00;99.90;;;;;;5000765;28;20391;-80
2021/09/21 06:59:47;;;;;;;9.50;8.60;;;14.00;99.90;;;;;;4997475;28;20493;-79
2021/09/21 07:02:13;;;;;;;12.35;9.05;;;14.10;99.90;;;;;;4979684;28;21044;-78
2021/09/21 07:04:39;;;;;;;10.27;8.73;;;14.20;99.90;;;;;;4996789;28;20386;-79
2021/09/21 07:07:04;;;;;;;12.87;9.43;;;14.30;99.90;;;;;;4998168;28;20379;-77
2021/09/21 07:09:30;;;;;;;10.90;8.17;;;14.30;99.90;;;;;;4998764;28;20999;-81
2021/09/21 07:11:56;;;;;;;10.57;9.23;;;14.40;99.90;;;;;;4998588;28;20392;-80
2021/09/21 07:14:21;;;;;;;9.30;8.40;;;14.50;99.90;;;;;;4997284;28;20392;-80
2021/09/21 07:16:47;;;;;;;10.57;9.45;;;14.50;99.90;;;;;;4998703;28;20411;-80
2021/09/21 07:19:15;;;;;;;14.65;13.25;;;14.60;99.90;;;;;;4997841;28;20411;-80
2021/09/21 07:21:41;;;;;;;15.07;13.40;;;14.60;99.90;;;;;;5001699;28;20455;-81
2021/09/21 07:24:07;;;;;;;21.77;17.00;;;14.60;99.90;;;;;;4998002;28;20379;-83
2021/09/21 07:26:32;;;;;;;10.60;9.57;;;14.50;99.90;;;;;;4999479;28;20952;-79
2021/09/21 07:28:58;;;;;;;10.85;8.90;;;14.70;99.90;;;;;;4997233;28;20373;-81
2021/09/21 07:31:24;;;;;;;14.63;12.80;;;14.80;99.90;;;;;;4998472;28;20486;-78
2021/09/21 07:33:49;;;;;;;13.23;11.80;;;14.80;99.90;;;;;;5000529;28;20381;-79
2021/09/21 07:36:15;;;;;;;53.57;48.07;;;15.00;99.90;;;;;;5002064;28;20930;-81
2021/09/21 07:38:41;;;;;;;23.33;20.60;;;15.10;99.90;;;;;;4984675;28;20492;-81
2021/09/21 07:41:06;;;;;;;13.05;11.20;;;15.20;99.90;;;;;;5001907;28;20436;-82
2021/09/21 07:43:32;;;;;;;9.53;8.23;;;15.30;99.90;;;;;;5001041;28;20377;-80
2021/09/21 07:45:57;;;;;;;13.18;7.78;;;15.40;99.90;;;;;;5002521;28;20387;-83
2021/09/21 07:48:23;;;;;;;29.70;26.83;;;15.50;99.90;;;;;;5000852;28;20866;-79
2021/09/21 07:50:51;;;;;;;19.75;17.67;;;15.80;99.90;;;;;;5001307;28;20461;-80
2021/09/21 07:53:17;;;;;;;23.92;21.65;;;15.80;99.90;;;;;;5002706;28;20390;-81
2021/09/21 07:55:43;;;;;;;14.00;12.68;;;15.90;99.90;;;;;;5001058;28;20381;-81
2021/09/21 07:58:09;;;;;;;20.85;18.20;;;15.90;99.90;;;;;;5000955;28;20458;-81
2021/09/21 08:00:35;;;;;;;10.43;8.20;;;15.90;99.90;;;;;;5002337;28;20522;-79
2021/09/21 08:03:00;;;;;;;10.75;8.48;;;15.90;99.90;;;;;;5000283;28;20385;-79
2021/09/21 08:05:26;;;;;;;18.13;15.93;;;16.10;99.90;;;;;;5001206;28;20478;-80
2021/09/21 08:07:51;;;;;;;8.77;7.32;;;15.90;99.90;;;;;;5001909;28;20380;-78
2021/09/21 08:10:17;;;;;;;10.03;8.50;;;16.00;99.90;;;;;;5000081;28;20383;-81
2021/09/21 08:12:43;;;;;;;8.97;8.07;;;16.30;99.90;;;;;;4983750;28;21072;-80
2021/09/21 08:15:10;;;;;;;10.07;7.57;;;16.30;99.90;;;;;;4999732;28;20424;-78
2021/09/21 08:17:36;;;;;;;11.68;9.90;;;16.30;99.90;;;;;;5000172;28;20787;-82
2021/09/21 08:20:04;;;;;;;16.15;14.45;;;16.30;99.90;;;;;;5002116;28;20976;-80
2021/09/21 08:22:29;;;;;;;16.23;14.55;;;16.30;99.90;;;;;;5000723;28;20448;-79
2021/09/21 08:24:56;;;;;;;13.73;11.25;;;16.40;99.90;;;;;;5000334;28;20390;-80
2021/09/21 08:27:24;;;;;;;15.25;12.73;;;16.40;99.90;;;;;;5003905;28;20789;-82
2021/09/21 08:29:51;;;;;;;11.23;9.18;;;16.50;99.90;;;;;;5000674;28;20380;-83
2021/09/21 08:32:17;;;;;;;8.60;6.78;;;16.60;99.90;;;;;;5003693;28;20806;-82
2021/09/21 08:34:42;;;;;;;6.28;5.63;;;16.60;99.90;;;;;;4982521;28;20377;-83
2021/09/21 08:37:08;;;;;;;5.47;4.60;;;16.60;99.90;;;;;;4983772;28;20380;-82
2021/09/21 08:39:33;;;;;;;5.28;4.47;;;16.60;99.90;;;;;;5002647;28;20419;-82
2021/09/21 08:41:59;;;;;;;5.10;4.60;;;16.80;99.90;;;;;;5000162;28;20906;-81
2021/09/21 08:44:25;;;;;;;8.13;5.25;;;17.00;99.90;;;;;;5000361;28;20389;-79
2021/09/21 08:46:51;;;;;;;7.03;5.15;;;17.30;99.90;;;;;;5000356;28;20389;-79
2021/09/21 08:49:17;;;;;;;5.13;4.63;;;17.50;99.90;;;;;;4988983;28;20420;-80
2021/09/21 08:51:43;;;;;;;6.55;5.30;;;17.40;99.90;;;;;;5001879;28;20375;-84
2021/09/21 08:54:09;;;;;;;6.82;5.47;;;17.40;99.90;;;;;;5000598;28;20423;-84
2021/09/21 08:56:35;;;;;;;7.32;5.35;;;17.00;99.90;;;;;;5001574;28;20375;-80
2021/09/21 08:59:05;;;;;;;6.07;5.43;;;17.00;99.90;;;;;;5000120;28;20496;-82
2021/09/21 09:02:02;;;;;;;7.55;6.10;;;17.30;99.90;;;;;;4994922;28;20422;-82
2021/09/21 09:04:30;;;;;;;6.70;5.73;;;17.40;99.90;;;;;;4999706;28;20460;-81
2021/09/21 09:06:57;;;;;;;11.07;5.57;;;17.40;99.90;;;;;;4984921;28;20470;-83
2021/09/21 09:09:25;;;;;;;9.30;5.95;;;17.20;99.90;;;;;;4997530;28;20743;-83
2021/09/21 09:11:55;;;;;;;8.95;6.25;;;17.30;99.90;;;;;;4984601;28;20371;-81
2021/09/21 09:14:38;;;;;;;9.02;6.18;;;17.50;99.90;;;;;;5002037;28;20389;-80
2021/09/21 09:17:11;;;;;;;6.70;6.00;;;17.60;99.90;;;;;;4999749;28;20387;-84
2021/09/21 09:19:45;;;;;;;6.18;5.57;;;17.60;99.90;;;;;;4988062;28;20421;-81
2021/09/21 09:22:16;;;;;;;6.03;5.30;;;17.80;99.90;;;;;;5000091;28;20408;-82
2021/09/21 09:24:51;;;;;;;8.82;5.70;;;17.90;99.90;;;;;;4999709;28;20401;-82
2021/09/21 09:27:19;;;;;;;8.00;5.78;;;17.90;99.90;;;;;;5000902;28;20383;-80
2021/09/21 09:30:00;;;;;;;6.53;4.63;;;18.10;99.90;;;;;;4983130;28;20494;-79
2021/09/21 09:32:26;;;;;;;6.38;5.50;;;17.90;99.90;;;;;;5000814;28;20865;-77
2021/09/21 09:34:52;;;;;;;8.32;5.22;;;17.80;99.90;;;;;;4989082;28;20964;-82
2021/09/21 09:37:18;;;;;;;6.97;4.82;;;17.80;99.90;;;;;;4982637;28;20939;-83
2021/09/21 09:39:46;;;;;;;6.37;3.97;;;18.10;99.90;;;;;;5001625;28;20408;-82
2021/09/21 09:42:13;;;;;;;5.33;4.20;;;18.20;99.90;;;;;;4983393;28;20399;-79
2021/09/21 09:44:40;;;;;;;5.55;4.47;;;18.40;99.90;;;;;;4998679;28;20838;-81
2021/09/21 09:47:07;;;;;;;6.30;4.37;;;18.20;99.90;;;;;;4999085;28;20386;-84
2021/09/21 09:49:38;;;;;;;7.13;4.63;;;18.40;99.90;;;;;;4999830;28;20392;-79
2021/09/21 09:52:16;;;;;;;5.28;4.00;;;18.60;99.90;;;;;;5001528;28;20433;-80
2021/09/21 09:54:43;;;;;;;6.53;4.97;;;18.70;99.90;;;;;;5002842;28;20394;-81
2021/09/21 09:57:10;;;;;;;4.65;4.10;;;18.60;99.90;;;;;;5002062;28;20400;-83
2021/09/21 09:59:38;;;;;;;4.93;4.03;;;18.40;99.90;;;;;;4986094;28;20888;-80
2021/09/21 10:02:05;;;;;;;6.85;4.25;;;18.40;99.90;;;;;;4999199;28;20543;-82
2021/09/21 10:04:30;;;;;;;6.65;3.67;;;18.00;99.90;;;;;;4996723;28;20856;-80
2021/09/21 10:06:57;;;;;;;7.03;4.30;;;18.20;99.90;;;;;;5000493;28;20419;-84
2021/09/21 10:09:23;;;;;;;6.40;4.20;;;18.30;99.90;;;;;;4999547;28;20385;-83
2021/09/21 10:11:56;;;;;;;9.18;4.25;;;18.30;99.90;;;;;;5002995;28;20377;-82
2021/09/21 10:14:24;;;;;;;5.93;4.20;;;18.30;99.90;;;;;;4987707;28;20472;-80
2021/09/21 10:17:03;;;;;;;6.68;4.53;;;18.20;99.90;;;;;;5001026;28;20427;-85
2021/09/21 10:19:31;;;;;;;5.00;4.50;;;17.90;99.90;;;;;;5000827;28;20932;-82
2021/09/21 10:21:57;;;;;;;9.02;5.28;;;18.00;99.90;;;;;;5000841;28;20431;-82
2021/09/21 10:24:49;;;;;;;7.33;5.20;;;18.00;99.90;;;;;;4999066;28;20398;-81
2021/09/21 10:27:51;;;;;;;5.93;4.60;;;17.80;99.90;;;;;;4998172;28;20495;-82
2021/09/21 10:30:25;;;;;;;7.72;4.97;;;17.90;99.90;;;;;;4984922;28;20396;-81
2021/09/21 10:32:52;;;;;;;6.13;4.80;;;17.70;99.90;;;;;;4996560;28;20527;-84
2021/09/21 10:38:35;;;;;;;5.10;4.60;;;17.80;99.90;;;;;;4981788;28;20428;-83
2021/09/21 10:41:03;;;;;;;5.87;4.77;;;17.80;99.90;;;;;;4962516;28;20396;-82
2021/09/21 10:43:34;;;;;;;4.97;4.47;;;17.70;99.90;;;;;;4959809;28;20497;-82
2021/09/21 10:46:16;;;;;;;4.80;4.20;;;17.60;99.90;;;;;;4961348;28;20425;-80
2021/09/21 10:48:45;;;;;;;5.80;4.22;;;17.50;99.90;;;;;;4994778;28;20473;-80
2021/09/21 10:51:12;;;;;;;6.13;4.18;;;17.40;99.90;;;;;;4980759;28;20412;-81
2021/09/21 10:53:39;;;;;;;5.60;4.20;;;17.60;99.90;;;;;;4948248;28;20405;-82
2021/09/21 10:56:11;;;;;;;7.72;4.13;;;17.70;99.90;;;;;;4979811;28;20943;-80
2021/09/21 10:58:38;;;;;;;6.53;4.00;;;17.70;99.90;;;;;;4980224;28;20431;-79
2021/09/21 11:01:05;;;;;;;7.20;4.40;;;17.70;99.90;;;;;;4979071;28;20883;-79
2021/09/21 11:03:35;;;;;;;4.90;4.35;;;17.60;99.90;;;;;;4977728;28;20379;-81
2021/09/21 11:06:01;;;;;;;7.00;4.57;;;17.20;99.90;;;;;;4958107;28;20406;-80
2021/09/21 11:08:32;;;;;;;4.88;4.28;;;17.10;99.90;;;;;;4982874;28;20425;-83
2021/09/21 11:10:59;;;;;;;6.70;4.20;;;16.90;99.90;;;;;;4963297;28;20527;-82
2021/09/21 11:13:27;;;;;;;6.75;4.28;;;16.90;99.90;;;;;;4980700;28;20803;-81
2021/09/21 11:15:58;;;;;;;5.95;4.78;;;17.00;99.90;;;;;;4980785;28;20467;-79
2021/09/21 11:18:23;;;;;;;5.72;4.45;;;17.00;99.90;;;;;;4964641;28;20385;-80
2021/09/21 11:20:56;;;;;;;5.90;4.57;;;16.90;99.90;;;;;;4962937;28;21043;-82
2021/09/21 11:23:24;;;;;;;5.82;4.80;;;16.90;99.90;;;;;;4980188;28;20421;-79
2021/09/21 11:25:52;;;;;;;7.43;4.40;;;16.80;99.90;;;;;;4981026;28;20483;-79
2021/09/21 11:28:18;;;;;;;5.30;4.50;;;16.90;99.90;;;;;;4962723;28;20925;-80
2021/09/21 11:30:45;;;;;;;5.40;4.40;;;17.00;99.90;;;;;;4980681;28;20393;-81
2021/09/21 11:33:21;;;;;;;3.97;3.58;;;17.30;99.90;;;;;;4965596;28;20407;-81
2021/09/21 11:35:49;;;;;;;5.43;4.13;;;17.70;99.90;;;;;;4982883;28;20387;-79
2021/09/21 11:38:16;;;;;;;6.57;4.20;;;17.80;99.90;;;;;;4983624;28;20376;-79
2021/09/21 11:40:43;;;;;;;5.88;4.15;;;17.60;99.90;;;;;;4985328;28;20415;-83
2021/09/21 11:43:12;;;;;;;6.50;4.65;;;17.70;99.90;;;;;;4983287;28;20379;-83
2021/09/21 11:45:43;;;;;;;5.55;4.43;;;17.70;99.90;;;;;;4983724;28;20933;-83
2021/09/21 11:48:10;;;;;;;4.30;3.88;;;17.60;99.90;;;;;;4977661;28;20389;-83
2021/09/21 11:50:37;;;;;;;5.78;5.20;;;17.40;99.90;;;;;;4985691;28;20472;-78
2021/09/21 11:53:10;;;;;;;9.43;7.87;;;17.20;99.90;;;;;;4981472;28;20890;-80
2021/09/21 11:55:38;;;;;;;7.63;6.80;;;17.20;99.90;;;;;;4984596;28;20392;-81
2021/09/21 11:58:05;;;;;;;6.43;5.50;;;17.40;99.90;;;;;;4982454;28;20408;-85
2021/09/21 12:00:36;;;;;;;12.13;11.13;;;17.60;99.90;;;;;;4981154;28;20457;-79
2021/09/21 12:03:08;;;;;;;23.63;20.07;;;17.60;99.90;;;;;;4986330;28;20393;-83
2021/09/21 12:05:36;;;;;;;14.20;11.57;;;17.80;99.90;;;;;;4985674;28;20383;-79
2021/09/21 12:08:05;;;;;;;25.38;19.45;;;17.70;99.90;;;;;;4957160;28;20386;-84
2021/09/21 12:10:31;;;;;;;9.57;8.27;;;17.60;99.90;;;;;;4954433;28;20477;-81
2021/09/21 12:12:59;;;;;;;22.57;18.93;;;17.50;99.90;;;;;;4971590;28;20897;-82
2021/09/21 12:15:25;;;;;;;30.55;27.48;;;17.40;99.90;;;;;;4985895;28;20452;-81
2021/09/21 12:17:53;;;;;;;8.55;7.15;;;17.60;99.90;;;;;;5004307;28;20440;-84
2021/09/21 12:20:24;;;;;;;23.55;21.13;;;17.60;99.90;;;;;;4988555;28;20413;-80
2021/09/21 12:22:54;;;;;;;12.55;10.25;;;17.60;99.90;;;;;;4989890;28;20842;-79
2021/09/21 12:25:22;;;;;;;10.75;9.65;;;17.60;99.90;;;;;;4991763;28;20949;-83
2021/09/21 12:27:53;;;;;;;26.42;21.98;;;17.80;99.90;;;;;;4991690;28;20397;-80
2021/09/21 12:30:22;;;;;;;12.20;10.13;;;18.10;99.90;;;;;;4990299;28;20388;-77
2021/09/21 12:33:09;;;;;;;12.03;9.50;;;18.20;99.90;;;;;;4974039;28;20407;-80
2021/09/21 12:35:38;;;;;;;9.77;6.25;;;18.30;99.90;;;;;;4987116;28;20388;-81
2021/09/21 12:38:18;;;;;;;19.23;17.15;;;18.50;99.90;;;;;;4991501;28;20454;-81
2021/09/21 12:41:02;;;;;;;9.77;5.97;;;18.60;99.90;;;;;;4991521;28;20399;-84
2021/09/21 12:43:41;;;;;;;9.57;6.40;;;18.50;99.90;;;;;;4987855;28;20409;-83
2021/09/21 12:46:08;;;;;;;9.70;7.23;;;18.40;99.90;;;;;;4990549;28;20416;-81
2021/09/21 12:48:40;;;;;;;8.45;4.78;;;18.30;99.90;;;;;;5008121;28;20391;-82
2021/09/21 12:51:07;;;;;;;5.78;4.60;;;18.40;99.90;;;;;;4991384;28;20435;-82
2021/09/21 12:53:34;;;;;;;6.07;5.38;;;18.30;99.90;;;;;;4991190;28;20397;-79
2021/09/21 12:56:11;;;;;;;7.53;5.97;;;18.30;99.90;;;;;;4974027;28;20399;-82
2021/09/21 12:58:39;;;;;;;5.70;4.27;;;18.40;99.90;;;;;;4991241;28;20512;-79